createdAt,value
2018-01-27T00:02:01.719Z,14.63
2018-01-27T00:04:29.385Z,13.73
2018-01-27T00:06:57.253Z,14.57
2018-01-27T00:09:24.805Z,14.57
2018-01-27T00:11:52.441Z,14.93
2018-01-27T00:14:20.963Z,13.80
2018-01-27T00:16:49.535Z,15.20
2018-01-27T00:19:17.158Z,15.07
2018-01-27T00:21:44.806Z,14.83
2018-01-27T00:24:13.726Z,15.33
2018-01-27T00:26:42.114Z,15.80
2018-01-27T00:29:09.711Z,14.73
2018-01-27T00:31:37.434Z,16.80
2018-01-27T00:34:06.103Z,15.43
2018-01-27T00:36:34.666Z,15.30
2018-01-27T00:39:02.254Z,14.23
2018-01-27T00:41:29.837Z,15.17
2018-01-27T00:43:57.439Z,16.10
2018-01-27T00:48:59.722Z,15.77
2018-01-27T00:51:27.292Z,14.70
2018-01-27T00:53:55.566Z,16.70
2018-01-27T00:56:23.161Z,16.87
2018-01-27T00:58:50.762Z,16.60
2018-01-27T01:01:19.096Z,16.90
2018-01-27T01:03:46.704Z,15.00
2018-01-27T01:08:48.351Z,16.63
2018-01-27T01:11:15.922Z,16.10
2018-01-27T01:13:43.521Z,16.57
2018-01-27T01:16:11.861Z,18.37
2018-01-27T01:18:40.178Z,18.63
2018-01-27T01:21:07.761Z,18.50
2018-01-27T01:23:35.334Z,18.53
2018-01-27T01:26:02.896Z,17.47
2018-01-27T01:28:30.501Z,17.07
2018-01-27T01:30:58.093Z,17.20
2018-01-27T01:33:26.457Z,17.20
2018-01-27T01:35:54.023Z,17.47
2018-01-27T01:38:21.608Z,17.70
2018-01-27T01:40:49.200Z,17.63
2018-01-27T01:43:22.513Z,17.83
2018-01-27T01:45:50.861Z,19.27
2018-01-27T01:48:18.438Z,19.53
2018-01-27T01:50:46.002Z,20.33
2018-01-27T01:53:13.582Z,23.10
2018-01-27T01:55:41.197Z,19.30
2018-01-27T01:58:08.769Z,20.17
2018-01-27T02:00:36.444Z,22.20
2018-01-27T02:03:04.864Z,20.37
2018-01-27T02:05:32.454Z,21.30
2018-01-27T02:08:00.017Z,21.40
2018-01-27T02:10:27.598Z,19.90
2018-01-27T02:12:55.223Z,23.33
2018-01-27T02:15:22.828Z,23.73
2018-01-27T02:17:50.384Z,23.70
2018-01-27T02:20:17.973Z,25.67
2018-01-27T02:22:45.543Z,25.40
2018-01-27T02:25:13.122Z,23.13
2018-01-27T02:27:40.720Z,24.10
2018-01-27T02:30:08.388Z,24.67
2018-01-27T02:32:35.989Z,26.37
2018-01-27T02:35:03.601Z,24.13
2018-01-27T02:37:31.192Z,26.37
2018-01-27T02:39:58.795Z,24.63
2018-01-27T02:42:26.366Z,23.10
2018-01-27T02:44:54.919Z,22.90
2018-01-27T02:47:23.028Z,26.47
2018-01-27T02:49:50.614Z,25.70
2018-01-27T02:52:18.192Z,26.40
2018-01-27T02:54:45.790Z,25.27
2018-01-27T02:57:14.183Z,27.40
2018-01-27T02:59:42.533Z,26.30
2018-01-27T03:02:10.113Z,21.23
2018-01-27T03:04:37.802Z,22.03
2018-01-27T03:07:05.366Z,20.93
2018-01-27T03:09:33.712Z,19.93
2018-01-27T03:12:01.340Z,20.67
2018-01-27T03:14:28.945Z,18.63
2018-01-27T03:16:56.542Z,17.17
2018-01-27T03:19:24.149Z,19.03
2018-01-27T03:21:51.719Z,17.53
2018-01-27T03:24:19.324Z,18.77
2018-01-27T03:26:47.651Z,19.03
2018-01-27T03:29:15.278Z,19.07
2018-01-27T03:31:42.838Z,17.70
2018-01-27T03:34:11.202Z,17.80
2018-01-27T03:36:38.939Z,17.97
2018-01-27T03:39:06.538Z,16.57
2018-01-27T03:41:34.110Z,17.53
2018-01-27T03:44:01.706Z,17.77
2018-01-27T03:46:29.290Z,16.53
2018-01-27T03:48:56.877Z,18.23
2018-01-27T03:51:25.210Z,17.70
2018-01-27T03:53:52.827Z,18.00
2018-01-27T03:56:20.398Z,19.47
2018-01-27T03:58:47.972Z,18.33
2018-01-27T04:01:15.542Z,19.30
2018-01-27T04:03:43.126Z,17.63
2018-01-27T04:08:45.431Z,17.73
2018-01-27T04:11:13.014Z,17.90
2018-01-27T04:13:41.343Z,17.73
2018-01-27T04:16:09.212Z,19.73
2018-01-27T04:18:36.776Z,18.77
2018-01-27T04:21:04.385Z,16.70
2018-01-27T04:23:31.956Z,18.37
2018-01-27T04:25:59.543Z,17.77
2018-01-27T04:28:27.096Z,17.53
2018-01-27T04:30:54.674Z,16.60
2018-01-27T04:33:22.286Z,18.70
2018-01-27T04:35:50.607Z,18.50
2018-01-27T04:38:18.172Z,17.53
2018-01-27T04:40:45.763Z,18.50
2018-01-27T04:43:13.333Z,18.37
2018-01-27T04:45:40.904Z,19.53
2018-01-27T04:48:08.500Z,17.83
2018-01-27T04:50:36.070Z,18.57
2018-01-27T04:53:03.700Z,18.83
2018-01-27T04:55:31.265Z,19.07
2018-01-27T04:57:58.930Z,19.17
2018-01-27T05:00:27.268Z,18.60
2018-01-27T05:02:54.861Z,18.23
2018-01-27T05:05:22.419Z,19.33
2018-01-27T05:07:50.771Z,19.47
2018-01-27T05:10:18.343Z,16.47
2018-01-27T05:12:45.938Z,17.07
2018-01-27T05:15:13.498Z,18.53
2018-01-27T05:17:41.086Z,18.17
2018-01-27T05:20:08.665Z,18.53
2018-01-27T05:22:36.251Z,20.17
2018-01-27T05:25:03.806Z,18.93
2018-01-27T05:27:31.394Z,19.60
2018-01-27T05:29:59.735Z,18.00
2018-01-27T05:32:27.331Z,18.83
2018-01-27T05:34:54.947Z,18.10
2018-01-27T05:37:23.354Z,17.43
2018-01-27T05:39:51.687Z,17.73
2018-01-27T05:42:19.246Z,18.83
2018-01-27T05:44:46.843Z,18.80
2018-01-27T05:47:14.411Z,18.43
2018-01-27T05:49:42.006Z,18.87
2018-01-27T05:52:09.598Z,18.30
2018-01-27T05:54:39.163Z,19.77
2018-01-27T05:57:06.746Z,19.07
2018-01-27T05:59:34.341Z,18.50
2018-01-27T06:02:01.974Z,17.40
2018-01-27T06:04:29.627Z,17.43
2018-01-27T06:06:57.952Z,18.27
2018-01-27T06:09:25.543Z,18.00
2018-01-27T06:11:53.145Z,18.07
2018-01-27T06:14:21.516Z,18.47
2018-01-27T06:16:50.260Z,17.53
2018-01-27T06:19:17.861Z,16.50
2018-01-27T06:21:45.448Z,16.27
2018-01-27T06:24:13.081Z,16.97
2018-01-27T06:26:40.638Z,12.03
2018-01-27T06:29:08.248Z,12.07
2018-01-27T06:31:35.828Z,10.23
2018-01-27T06:34:03.419Z,11.00
2018-01-27T06:36:31.026Z,14.07
2018-01-27T06:38:59.391Z,11.57
2018-01-27T06:41:27.022Z,13.10
2018-01-27T06:43:54.625Z,12.83
2018-01-27T06:46:22.199Z,13.87
2018-01-27T06:48:49.822Z,14.10
2018-01-27T06:51:17.405Z,13.77
2018-01-27T06:53:45.008Z,13.57
2018-01-27T06:56:12.609Z,14.87
2018-01-27T06:58:40.370Z,13.33
2018-01-27T07:01:07.954Z,13.60
2018-01-27T07:03:36.304Z,14.23
2018-01-27T07:06:03.938Z,15.40
2018-01-27T07:08:31.526Z,26.83
2018-01-27T07:10:59.689Z,31.77
2018-01-27T07:13:28.765Z,23.93
2018-01-27T07:15:56.398Z,23.27
2018-01-27T07:18:24.023Z,25.00
2018-01-27T07:20:51.685Z,19.43
2018-01-27T07:23:20.526Z,16.27
2018-01-27T07:25:48.881Z,19.77
2018-01-27T07:28:16.463Z,24.30
2018-01-27T07:30:44.106Z,23.70
2018-01-27T07:33:11.720Z,22.30
2018-01-27T07:35:40.947Z,21.27
2018-01-27T07:38:09.309Z,18.27
2018-01-27T07:40:36.968Z,17.80
2018-01-27T07:43:04.555Z,15.60
2018-01-27T07:45:32.260Z,22.37
2018-01-27T07:47:59.900Z,27.57
2018-01-27T07:50:27.578Z,37.07
2018-01-27T07:52:55.178Z,31.83
2018-01-27T07:55:22.868Z,35.73
2018-01-27T07:57:50.514Z,30.63
2018-01-27T08:00:18.863Z,27.23
2018-01-27T08:02:46.535Z,28.37
2018-01-27T08:05:14.875Z,36.13
2018-01-27T08:07:43.236Z,30.03
2018-01-27T08:10:12.141Z,34.03
2018-01-27T08:12:40.168Z,29.37
2018-01-27T08:17:41.806Z,26.57
2018-01-27T08:20:09.412Z,22.07
2018-01-27T08:22:36.990Z,28.67
2018-01-27T08:25:05.356Z,24.50
2018-01-27T08:27:34.035Z,33.33
2018-01-27T08:30:01.614Z,17.57
2018-01-27T08:32:30.562Z,18.37
2018-01-27T08:34:58.255Z,29.33
2018-01-27T08:37:25.967Z,20.90
2018-01-27T08:39:54.843Z,13.57
2018-01-27T08:42:23.103Z,13.00
2018-01-27T08:44:50.716Z,11.83
2018-01-27T08:47:18.326Z,12.80
2018-01-27T08:49:45.904Z,10.93
2018-01-27T08:52:14.687Z,11.37
2018-01-27T08:54:43.255Z,11.17
2018-01-27T08:57:10.827Z,10.90
2018-01-27T08:59:38.901Z,10.70
2018-01-27T09:02:07.559Z,10.07
2018-01-27T09:04:35.971Z,11.00
2018-01-27T09:07:05.123Z,11.90
2018-01-27T09:09:32.738Z,9.97
2018-01-27T09:12:01.071Z,12.90
2018-01-27T09:14:29.481Z,34.03
2018-01-27T09:16:57.069Z,42.47
2018-01-27T09:19:25.480Z,24.67
2018-01-27T09:21:54.977Z,24.23
2018-01-27T09:24:22.630Z,11.83
2018-01-27T09:26:50.234Z,15.00
2018-01-27T09:29:17.838Z,9.53
2018-01-27T09:31:45.456Z,13.23
2018-01-27T09:34:13.008Z,10.50
2018-01-27T09:36:41.635Z,10.90
2018-01-27T09:39:09.213Z,27.63
2018-01-27T09:41:37.674Z,10.57
2018-01-27T09:44:06.553Z,11.47
2018-01-27T09:46:34.817Z,13.57
2018-01-27T09:49:03.623Z,46.80
2018-01-27T09:51:32.130Z,40.60
2018-01-27T09:54:00.262Z,11.33
2018-01-27T09:56:28.156Z,23.20
2018-01-27T09:58:55.791Z,11.30
2018-01-27T10:01:24.164Z,11.27
2018-01-27T10:03:52.370Z,13.23
2018-01-27T10:06:19.984Z,12.40
2018-01-27T10:08:47.635Z,11.00
2018-01-27T10:11:15.930Z,13.10
2018-01-27T10:17:40.002Z,13.47
2018-01-27T10:20:07.660Z,13.43
2018-01-27T10:22:35.297Z,13.20
2018-01-27T10:25:03.798Z,12.47
2018-01-27T10:27:31.389Z,17.23
2018-01-27T10:29:59.090Z,13.03
2018-01-27T10:32:27.289Z,12.20
2018-01-27T10:34:55.697Z,12.53
2018-01-27T10:37:23.368Z,13.73
2018-01-27T10:39:50.955Z,14.03
2018-01-27T10:42:19.287Z,12.97
2018-01-27T10:44:46.880Z,13.73
2018-01-27T10:47:14.520Z,15.03
2018-01-27T10:49:42.103Z,15.80
2018-01-27T10:52:09.783Z,15.90
2018-01-27T10:54:38.731Z,17.13
2018-01-27T10:57:06.393Z,17.40
2018-01-27T10:59:35.591Z,17.97
2018-01-27T11:02:05.939Z,18.03
2018-01-27T11:04:33.659Z,16.03
2018-01-27T11:07:02.967Z,16.90
2018-01-27T11:09:32.361Z,16.90
2018-01-27T11:11:59.947Z,16.37
2018-01-27T11:14:29.995Z,17.60
2018-01-27T11:16:58.376Z,17.53
2018-01-27T11:19:27.245Z,16.20
2018-01-27T11:21:54.855Z,18.60
2018-01-27T11:24:23.000Z,18.00
2018-01-27T11:26:50.640Z,18.67
2018-01-27T11:29:18.272Z,18.23
2018-01-27T11:31:46.723Z,19.90
2018-01-27T11:34:14.758Z,18.03
2018-01-27T11:36:42.395Z,20.37
2018-01-27T11:39:10.588Z,17.17
2018-01-27T11:41:38.511Z,17.10
2018-01-27T11:44:06.706Z,19.73
2018-01-27T11:46:35.050Z,18.47
2018-01-27T11:49:02.663Z,17.87
2018-01-27T11:51:31.074Z,18.53
2018-01-27T11:53:58.790Z,17.93
2018-01-27T11:56:26.423Z,19.10
2018-01-27T11:58:55.053Z,18.30
2018-01-27T12:01:25.768Z,18.00
2018-01-27T12:03:53.624Z,19.57
2018-01-27T12:06:21.243Z,18.80
2018-01-27T12:08:49.734Z,20.40
2018-01-27T12:11:17.419Z,20.73
2018-01-27T12:13:45.062Z,19.33
2018-01-27T12:16:12.968Z,20.00
2018-01-27T12:18:41.368Z,19.60
2018-01-27T12:21:09.018Z,19.63
2018-01-27T12:23:37.678Z,18.33
2018-01-27T12:26:06.031Z,18.87
2018-01-27T12:28:33.628Z,20.00
2018-01-27T12:31:02.492Z,17.87
2018-01-27T12:33:31.157Z,19.83
2018-01-27T12:35:59.515Z,19.47
2018-01-27T12:38:27.657Z,17.90
2018-01-27T12:40:55.878Z,19.17
2018-01-27T12:43:24.953Z,16.73
2018-01-27T12:45:52.631Z,17.40
2018-01-27T12:48:21.067Z,17.20
2018-01-27T12:50:49.759Z,17.70
2018-01-27T12:53:17.484Z,17.67
2018-01-27T12:55:47.239Z,17.80
2018-01-27T12:58:14.933Z,16.73
2018-01-27T13:00:43.294Z,15.90
2018-01-27T13:03:12.400Z,16.33
2018-01-27T13:05:39.986Z,15.87
2018-01-27T13:08:08.385Z,15.47
2018-01-27T13:10:36.767Z,17.07
2018-01-27T13:13:05.142Z,16.67
2018-01-27T13:15:32.766Z,15.77
2018-01-27T13:18:00.352Z,15.77
2018-01-27T13:20:28.593Z,16.37
2018-01-27T13:22:56.210Z,16.83
2018-01-27T13:25:23.817Z,17.23
2018-01-27T13:27:51.408Z,16.83
2018-01-27T13:30:19.064Z,16.37
2018-01-27T13:32:46.681Z,17.63
2018-01-27T13:35:14.284Z,17.93
2018-01-27T13:37:43.227Z,17.67
2018-01-27T13:40:10.922Z,16.83
2018-01-27T13:42:40.166Z,16.93
2018-01-27T13:45:08.513Z,17.03
2018-01-27T13:47:37.651Z,17.20
2018-01-27T13:50:05.732Z,15.03
2018-01-27T13:52:33.449Z,16.60
2018-01-27T13:55:01.052Z,15.70
2018-01-27T13:57:28.705Z,14.70
2018-01-27T13:59:57.043Z,14.47
2018-01-27T14:02:24.768Z,15.97
2018-01-27T14:04:54.951Z,16.33
2018-01-27T14:07:24.191Z,17.30
2018-01-27T14:09:52.800Z,16.17
2018-01-27T14:12:22.008Z,15.13
2018-01-27T14:14:51.505Z,15.27
2018-01-27T14:17:19.191Z,14.87
2018-01-27T14:19:47.322Z,15.73
2018-01-27T14:22:16.714Z,14.23
2018-01-27T14:24:46.792Z,19.20
2018-01-27T14:27:14.749Z,26.43
2018-01-27T14:29:42.560Z,20.43
2018-01-27T14:32:10.308Z,15.93
2018-01-27T14:34:39.656Z,17.07
2018-01-27T14:37:07.292Z,16.13
2018-01-27T14:39:35.658Z,15.60
2018-01-27T14:42:03.299Z,16.03
2018-01-27T14:44:30.989Z,16.53
2018-01-27T14:47:00.538Z,16.07
2018-01-27T14:49:29.834Z,15.77
2018-01-27T14:51:58.787Z,17.27
2018-01-27T14:54:27.038Z,17.70
2018-01-27T14:56:56.196Z,15.80
2018-01-27T14:59:23.795Z,16.63
2018-01-27T15:01:51.405Z,16.40
2018-01-27T15:04:19.752Z,16.23
2018-01-27T15:06:48.373Z,15.20
2018-01-27T15:09:16.103Z,15.03
2018-01-27T15:11:43.829Z,16.43
2018-01-27T15:14:11.428Z,17.17
2018-01-27T15:16:41.038Z,16.63
2018-01-27T15:19:08.767Z,17.80
2018-01-27T15:21:36.350Z,19.40
2018-01-27T15:24:03.953Z,18.67
2018-01-27T15:26:31.586Z,20.03
2018-01-27T15:28:59.240Z,20.00
2018-01-27T15:31:27.845Z,18.50
2018-01-27T15:33:56.503Z,19.90
2018-01-27T15:36:24.588Z,21.60
2018-01-27T15:38:52.829Z,19.67
2018-01-27T15:41:20.473Z,19.90
2018-01-27T15:43:48.888Z,19.63
2018-01-27T15:46:16.826Z,20.67
2018-01-27T15:48:45.209Z,18.60
2018-01-27T15:54:11.767Z,19.60
2018-01-27T15:56:40.361Z,19.60
2018-01-27T15:59:07.937Z,19.63
2018-01-27T16:01:36.405Z,20.13
2018-01-27T16:04:04.011Z,22.27
2018-01-27T16:06:31.619Z,19.53
2018-01-27T16:08:59.256Z,19.40
2018-01-27T16:11:27.924Z,19.00
2018-01-27T16:13:55.551Z,18.47
2018-01-27T16:16:23.904Z,20.07
2018-01-27T16:18:52.018Z,17.60
2018-01-27T16:21:20.492Z,16.53
2018-01-27T16:23:48.902Z,14.97
2018-01-27T16:26:16.525Z,15.13
2018-01-27T16:28:44.144Z,15.97
2018-01-27T16:31:11.742Z,16.87
2018-01-27T16:33:40.164Z,23.67
2018-01-27T16:36:07.799Z,23.77
2018-01-27T16:41:33.095Z,27.23
2018-01-27T16:44:00.735Z,34.37
2018-01-27T16:46:28.318Z,20.20
2018-01-27T16:48:56.117Z,19.53
2018-01-27T16:51:24.503Z,17.17
2018-01-27T16:53:52.102Z,18.13
2018-01-27T16:56:19.791Z,16.80
2018-01-27T16:58:47.406Z,17.83
2018-01-27T17:01:14.962Z,18.47
2018-01-27T17:03:42.630Z,19.17
2018-01-27T17:06:11.189Z,16.93
2018-01-27T17:08:39.005Z,17.77
2018-01-27T17:11:06.617Z,19.30
2018-01-27T17:13:34.260Z,19.93
2018-01-27T17:16:01.897Z,20.47
2018-01-27T17:18:30.268Z,18.40
2018-01-27T17:20:57.845Z,19.63
2018-01-27T17:23:26.209Z,17.03
2018-01-27T17:25:53.828Z,19.67
2018-01-27T17:28:22.654Z,19.67
2018-01-27T17:30:53.368Z,21.17
2018-01-27T17:33:21.512Z,18.60
2018-01-27T17:35:51.105Z,19.23
2018-01-27T17:38:20.860Z,19.20
2018-01-27T17:40:49.669Z,23.83
2018-01-27T17:43:20.772Z,20.13
2018-01-27T17:45:48.929Z,23.73
2018-01-27T17:48:19.426Z,24.70
2018-01-27T17:50:48.632Z,25.67
2018-01-27T17:53:17.715Z,23.07
2018-01-27T17:55:45.892Z,19.87
2018-01-27T17:58:15.445Z,21.40
2018-01-27T18:00:44.761Z,20.00
2018-01-27T18:03:13.027Z,22.17
2018-01-27T18:05:42.344Z,19.40
2018-01-27T18:08:12.214Z,19.90
2018-01-27T18:10:41.319Z,21.50
2018-01-27T18:13:11.222Z,18.20
2018-01-27T18:15:42.117Z,19.20
2018-01-27T18:18:12.456Z,16.37
2018-01-27T18:20:40.847Z,16.00
2018-01-27T18:23:11.711Z,16.03
2018-01-27T18:25:41.920Z,15.93
2018-01-27T18:28:10.895Z,14.43
2018-01-27T18:30:39.345Z,13.57
2018-01-27T18:33:07.606Z,13.33
2018-01-27T18:35:35.846Z,13.53
2018-01-27T18:38:07.979Z,11.50
2018-01-27T18:40:37.490Z,13.40
2018-01-27T18:43:06.392Z,12.20
2018-01-27T19:10:41.223Z,16.13
2018-01-27T19:13:08.860Z,10.00
2018-01-27T19:15:36.474Z,10.20
2018-01-27T19:18:05.540Z,11.63
2018-01-27T19:20:33.107Z,11.13
2018-01-27T19:23:01.239Z,10.20
2018-01-27T19:25:28.840Z,10.57
2018-01-27T19:27:57.194Z,10.37
2018-01-27T19:30:24.765Z,11.20
2018-01-27T19:32:52.346Z,11.57
2018-01-27T19:35:20.402Z,10.57
2018-01-27T19:50:19.949Z,11.67
2018-01-27T19:52:48.239Z,11.53
2018-01-27T19:55:17.298Z,11.37
2018-01-27T19:57:45.692Z,11.77
2018-01-27T20:00:15.011Z,11.37
2018-01-27T20:02:43.229Z,12.17
2018-01-27T20:05:12.944Z,12.80
2018-01-27T20:07:42.447Z,11.97
2018-01-27T20:10:11.346Z,13.37
2018-01-27T20:12:39.585Z,12.53
2018-01-27T20:15:08.098Z,11.73
2018-01-27T20:17:36.752Z,12.40
2018-01-27T20:20:05.814Z,12.33
2018-01-27T20:22:34.507Z,11.43
2018-01-27T20:25:03.442Z,12.47
2018-01-27T20:27:32.046Z,24.40
2018-01-27T20:30:00.923Z,12.83
2018-01-27T20:32:29.190Z,20.93
2018-01-27T20:34:57.497Z,12.97
2018-01-27T20:37:26.940Z,11.53
2018-01-27T20:39:56.887Z,11.80
2018-01-27T20:42:25.785Z,12.70
2018-01-27T20:44:54.691Z,11.40
2018-01-27T20:47:23.985Z,12.80
2018-01-27T20:49:53.477Z,11.83
2018-01-27T20:52:22.512Z,11.17
2018-01-27T20:54:51.670Z,11.90
2018-01-27T20:57:19.674Z,11.50
2018-01-27T20:59:49.704Z,11.13
2018-01-27T21:02:21.255Z,12.20
2018-01-27T21:04:49.382Z,12.17
2018-01-27T21:07:18.555Z,12.60
2018-01-27T21:09:46.940Z,12.00
2018-01-27T21:12:15.637Z,11.97
2018-01-27T21:14:44.631Z,11.57
2018-01-27T21:17:13.557Z,12.73
2018-01-27T21:19:43.851Z,12.57
2018-01-27T21:22:12.081Z,10.37
2018-01-27T21:24:40.436Z,12.03
2018-01-27T21:27:08.356Z,12.77
2018-01-27T21:29:37.263Z,11.20
2018-01-27T21:32:05.515Z,12.30
2018-01-27T21:34:33.648Z,12.50
2018-01-27T21:37:02.916Z,12.43
2018-01-27T21:39:31.085Z,12.77
2018-01-27T21:42:00.033Z,11.07
2018-01-27T21:44:29.687Z,12.10
2018-01-27T21:46:58.705Z,11.53
2018-01-27T21:49:28.020Z,11.87
2018-01-27T21:51:56.084Z,13.77
2018-01-27T21:54:24.394Z,12.67
2018-01-27T21:56:52.507Z,13.13
2018-01-27T21:59:21.350Z,12.17
2018-01-27T22:01:50.223Z,13.23
2018-01-27T22:04:19.242Z,12.13
2018-01-27T22:06:47.600Z,12.43
2018-01-27T22:09:17.421Z,12.83
2018-01-27T22:11:45.443Z,12.90
2018-01-27T22:14:14.344Z,13.97
2018-01-27T22:16:42.403Z,12.27
2018-01-27T22:19:11.286Z,12.03
2018-01-27T22:21:41.753Z,12.87
2018-01-27T22:24:09.360Z,13.73
2018-01-27T22:29:10.989Z,12.33
2018-01-27T22:31:38.691Z,12.77
2018-01-27T22:34:06.255Z,12.97
2018-01-27T22:36:33.861Z,13.27
2018-01-27T23:22:42.370Z,12.07
2018-01-27T23:25:09.954Z,11.67
2018-01-27T23:27:37.717Z,12.37
2018-01-27T23:30:05.329Z,12.30
2018-01-27T23:32:32.948Z,12.17
2018-01-27T23:35:00.540Z,12.43
2018-01-27T23:37:28.207Z,11.80
2018-01-27T23:39:55.819Z,11.53
2018-01-27T23:42:23.400Z,11.00
2018-01-27T23:44:51.003Z,10.40
2018-01-27T23:47:18.696Z,10.33
2018-01-27T23:49:47.075Z,10.83
2018-01-27T23:52:14.630Z,11.00
2018-01-27T23:54:42.188Z,11.13
2018-01-27T23:57:09.763Z,10.40
2018-01-27T23:59:37.426Z,10.40
